createdAt,value
2022-10-19T00:01:41.161Z,100.00
2022-10-19T00:04:08.854Z,100.00
2022-10-19T00:06:37.410Z,100.00
2022-10-19T00:09:06.376Z,100.00
2022-10-19T00:11:34.164Z,100.00
2022-10-19T00:14:01.429Z,100.00
2022-10-19T00:16:30.676Z,100.00
2022-10-19T00:18:58.433Z,100.00
2022-10-19T00:21:25.331Z,100.00
2022-10-19T00:23:53.565Z,100.00
2022-10-19T00:26:20.285Z,100.00
2022-10-19T00:28:47.026Z,99.35
2022-10-19T00:31:15.360Z,99.29
2022-10-19T00:33:43.045Z,99.26
2022-10-19T00:36:16.175Z,99.10
2022-10-19T00:38:42.777Z,99.06
2022-10-19T00:41:10.757Z,99.74
2022-10-19T00:43:52.122Z,99.35
2022-10-19T00:46:18.816Z,98.74
2022-10-19T00:48:45.524Z,99.15
2022-10-19T00:51:12.946Z,98.92
2022-10-19T00:53:39.737Z,98.39
2022-10-19T00:56:12.945Z,97.72
2022-10-19T00:58:42.665Z,98.23
2022-10-19T01:01:13.504Z,98.72
2022-10-19T01:03:40.519Z,98.00
2022-10-19T01:06:08.035Z,97.45
2022-10-19T01:08:34.684Z,97.99
2022-10-19T01:11:15.370Z,97.92
2022-10-19T01:13:50.949Z,98.15
2022-10-19T01:16:25.112Z,97.91
2022-10-19T01:18:58.905Z,97.74
2022-10-19T01:21:28.810Z,98.29
2022-10-19T01:24:23.548Z,98.32
2022-10-19T01:27:19.142Z,98.75
2022-10-19T01:30:16.171Z,98.84
2022-10-19T01:33:02.277Z,98.85
2022-10-19T01:35:36.379Z,99.38
2022-10-19T01:38:18.031Z,99.18
2022-10-19T01:40:51.273Z,99.27
2022-10-19T01:43:25.994Z,98.68
2022-10-19T01:45:58.289Z,98.67
2022-10-19T01:48:28.700Z,98.42
2022-10-19T01:50:59.799Z,98.76
2022-10-19T01:53:30.035Z,98.48
2022-10-19T01:55:59.700Z,98.66
2022-10-19T01:58:30.003Z,98.35
2022-10-19T02:01:02.278Z,98.46
2022-10-19T02:03:29.193Z,98.28
2022-10-19T02:05:57.579Z,97.75
2022-10-19T02:08:28.728Z,98.03
2022-10-19T02:10:56.466Z,98.33
2022-10-19T02:13:24.724Z,98.60
2022-10-19T02:15:54.353Z,98.86
2022-10-19T02:18:26.815Z,98.03
2022-10-19T02:20:53.433Z,97.38
2022-10-19T02:23:24.073Z,96.91
2022-10-19T02:25:50.762Z,96.41
2022-10-19T02:28:17.427Z,96.28
2022-10-19T02:30:44.055Z,96.33
2022-10-19T02:33:10.682Z,95.98
2022-10-19T02:35:38.869Z,95.72
2022-10-19T02:38:07.808Z,95.61
2022-10-19T02:40:39.585Z,95.67
2022-10-19T02:43:09.273Z,95.55
2022-10-19T02:45:40.318Z,95.92
2022-10-19T02:48:11.626Z,96.02
2022-10-19T02:50:43.599Z,96.34
2022-10-19T02:53:10.172Z,96.14
2022-10-19T02:55:36.742Z,96.67
2022-10-19T02:58:03.389Z,96.75
2022-10-19T03:00:29.895Z,96.38
2022-10-19T03:02:56.533Z,96.60
2022-10-19T03:05:23.054Z,96.57
2022-10-19T03:07:51.041Z,96.53
2022-10-19T03:10:17.656Z,96.58
2022-10-19T03:12:44.232Z,96.05
2022-10-19T03:15:14.963Z,96.45
2022-10-19T03:17:41.778Z,96.64
2022-10-19T03:20:09.263Z,96.16
2022-10-19T03:22:35.800Z,96.25
2022-10-19T03:25:03.976Z,96.28
2022-10-19T03:27:30.611Z,96.54
2022-10-19T03:29:57.267Z,96.27
2022-10-19T03:32:23.947Z,96.33
2022-10-19T03:34:50.440Z,96.31
2022-10-19T03:37:16.947Z,95.94
2022-10-19T03:39:43.472Z,95.64
2022-10-19T03:42:11.530Z,95.44
2022-10-19T03:44:37.998Z,95.13
2022-10-19T03:47:04.618Z,95.76
2022-10-19T03:49:31.099Z,95.84
2022-10-19T03:51:57.655Z,95.55
2022-10-19T03:54:27.297Z,95.89
2022-10-19T03:56:54.169Z,95.79
2022-10-19T03:59:22.024Z,95.65
2022-10-19T04:01:48.610Z,95.63
2022-10-19T04:04:18.609Z,95.56
2022-10-19T04:06:47.068Z,95.36
2022-10-19T04:09:15.859Z,95.16
2022-10-19T04:11:42.868Z,95.31
2022-10-19T04:14:15.898Z,95.12
2022-10-19T04:16:51.075Z,94.54
2022-10-19T04:19:17.594Z,94.47
2022-10-19T04:21:44.201Z,93.82
2022-10-19T04:24:13.622Z,94.36
2022-10-19T04:26:43.099Z,94.12
2022-10-19T04:29:10.309Z,93.69
2022-10-19T04:31:37.675Z,93.79
2022-10-19T04:34:06.432Z,94.40
2022-10-19T04:36:33.702Z,94.53
2022-10-19T04:39:00.250Z,94.97
2022-10-19T04:41:27.025Z,94.89
2022-10-19T04:43:57.954Z,95.35
2022-10-19T04:46:25.754Z,95.39
2022-10-19T04:48:52.465Z,95.72
2022-10-19T04:51:21.613Z,95.63
2022-10-19T04:53:48.565Z,95.34
2022-10-19T04:56:18.266Z,95.94
2022-10-19T04:58:45.420Z,95.96
2022-10-19T05:01:14.335Z,96.10
2022-10-19T05:03:40.935Z,96.25
2022-10-19T05:06:08.962Z,96.28
2022-10-19T05:08:37.729Z,95.47
2022-10-19T05:11:06.034Z,95.55
2022-10-19T05:13:32.900Z,96.22
2022-10-19T05:16:01.703Z,96.21
2022-10-19T05:18:28.428Z,96.37
2022-10-19T05:21:01.420Z,96.08
2022-10-19T05:23:28.130Z,96.89
2022-10-19T05:26:01.317Z,97.28
2022-10-19T05:28:28.252Z,96.70
2022-10-19T05:30:54.865Z,96.59
2022-10-19T05:33:21.641Z,96.11
2022-10-19T05:35:48.335Z,95.87
2022-10-19T05:38:14.897Z,95.92
2022-10-19T05:40:45.006Z,96.19
2022-10-19T05:43:13.010Z,96.72
2022-10-19T05:45:39.522Z,96.61
2022-10-19T05:48:06.218Z,96.63
2022-10-19T05:50:32.716Z,96.80
2022-10-19T05:52:59.471Z,96.96
2022-10-19T05:55:26.151Z,97.21
2022-10-19T05:57:52.715Z,97.40
2022-10-19T06:00:20.869Z,97.40
2022-10-19T06:02:47.720Z,97.81
2022-10-19T06:05:14.247Z,97.88
2022-10-19T06:07:40.852Z,97.50
2022-10-19T06:10:08.020Z,97.34
2022-10-19T06:12:34.558Z,97.73
2022-10-19T06:15:01.124Z,98.35
2022-10-19T06:17:29.522Z,98.21
2022-10-19T06:19:56.020Z,97.62
2022-10-19T06:22:22.592Z,97.45
2022-10-19T06:24:49.577Z,97.45
2022-10-19T06:27:16.188Z,97.37
2022-10-19T06:29:42.694Z,97.26
2022-10-19T06:32:09.325Z,96.51
2022-10-19T06:34:37.180Z,97.07
2022-10-19T06:37:03.785Z,96.16
2022-10-19T06:39:30.334Z,95.02
2022-10-19T06:41:56.925Z,95.45
2022-10-19T06:44:24.822Z,94.91
2022-10-19T06:46:51.397Z,94.66
2022-10-19T06:49:17.891Z,94.81
2022-10-19T06:51:45.803Z,93.10
2022-10-19T06:54:12.324Z,92.53
2022-10-19T06:56:38.943Z,93.07
2022-10-19T06:59:05.544Z,93.21
2022-10-19T07:01:32.901Z,93.24
2022-10-19T07:03:59.506Z,93.71
2022-10-19T07:06:27.291Z,93.47
2022-10-19T07:08:55.207Z,92.72
2022-10-19T07:11:22.025Z,92.84
2022-10-19T07:13:48.581Z,92.83
2022-10-19T07:16:20.738Z,92.53
2022-10-19T07:18:49.190Z,92.46
2022-10-19T07:21:16.608Z,92.90
2022-10-19T07:23:44.755Z,92.85
2022-10-19T07:26:14.891Z,93.39
2022-10-19T07:28:44.084Z,93.28
2022-10-19T07:31:13.059Z,93.32
2022-10-19T07:33:39.996Z,92.99
2022-10-19T07:36:08.825Z,93.50
2022-10-19T07:38:36.699Z,93.29
2022-10-19T07:41:05.667Z,93.08
2022-10-19T07:43:34.630Z,93.45
2022-10-19T07:46:02.896Z,93.87
2022-10-19T07:48:29.496Z,93.59
2022-10-19T07:50:56.218Z,93.12
2022-10-19T07:53:23.076Z,92.94
2022-10-19T07:55:49.582Z,92.91
2022-10-19T07:58:16.163Z,93.62
2022-10-19T08:00:44.118Z,94.03
2022-10-19T08:06:00.248Z,93.74
2022-10-19T08:08:27.399Z,94.48
2022-10-19T08:10:53.927Z,94.06
2022-10-19T08:13:20.777Z,94.11
2022-10-19T08:15:48.894Z,94.19
2022-10-19T08:18:15.431Z,94.28
2022-10-19T08:20:42.371Z,94.78
2022-10-19T08:23:08.963Z,94.56
2022-10-19T08:25:35.817Z,94.18
2022-10-19T08:28:02.384Z,93.84
2022-10-19T08:30:29.213Z,94.33
2022-10-19T08:32:57.410Z,94.57
2022-10-19T08:35:23.917Z,94.81
2022-10-19T08:37:50.724Z,95.39
2022-10-19T08:40:20.612Z,95.49
2022-10-19T08:42:55.350Z,95.48
2022-10-19T08:45:32.024Z,95.51
2022-10-19T08:48:10.318Z,95.18
2022-10-19T08:50:39.627Z,95.12
2022-10-19T08:53:12.368Z,94.67
2022-10-19T08:55:49.353Z,94.36
2022-10-19T08:58:35.953Z,93.55
2022-10-19T09:01:08.638Z,93.92
2022-10-19T09:04:01.296Z,93.74
2022-10-19T09:06:34.608Z,93.34
2022-10-19T09:09:01.608Z,92.40
2022-10-19T09:11:32.225Z,90.99
2022-10-19T09:14:06.609Z,91.03
2022-10-19T09:16:33.727Z,89.08
2022-10-19T09:19:02.543Z,88.94
2022-10-19T09:21:46.132Z,88.52
2022-10-19T09:24:27.799Z,88.49
2022-10-19T09:26:57.339Z,87.83
2022-10-19T09:29:29.486Z,87.61
2022-10-19T09:32:00.252Z,86.56
2022-10-19T09:34:33.603Z,84.62
2022-10-19T09:37:00.862Z,84.92
2022-10-19T09:39:29.915Z,84.55
2022-10-19T09:41:58.006Z,83.09
2022-10-19T09:44:26.475Z,83.18
2022-10-19T09:47:02.762Z,82.21
2022-10-19T09:49:41.870Z,82.58
2022-10-19T09:52:24.125Z,82.00
2022-10-19T09:54:58.723Z,80.10
2022-10-19T09:57:25.654Z,79.93
2022-10-19T09:59:52.460Z,80.29
2022-10-19T10:02:21.230Z,80.64
2022-10-19T10:04:55.648Z,80.55
2022-10-19T10:07:27.367Z,78.91
2022-10-19T10:09:54.051Z,79.63
2022-10-19T10:12:22.658Z,77.88
2022-10-19T10:14:50.690Z,79.45
2022-10-19T10:17:20.091Z,79.19
2022-10-19T10:20:03.035Z,77.06
2022-10-19T10:22:31.756Z,75.54
2022-10-19T10:24:58.468Z,74.79
2022-10-19T10:27:30.124Z,75.99
2022-10-19T10:32:29.134Z,75.37
2022-10-19T10:35:01.768Z,74.53
2022-10-19T10:37:35.142Z,75.01
2022-10-19T10:40:04.772Z,74.34
2022-10-19T10:42:37.463Z,72.54
2022-10-19T10:45:14.995Z,71.67
2022-10-19T10:47:43.482Z,72.76
2022-10-19T10:50:19.974Z,72.59
2022-10-19T10:52:57.612Z,68.70
2022-10-19T10:55:24.209Z,68.05
2022-10-19T10:57:54.407Z,69.45
2022-10-19T11:00:22.437Z,67.99
2022-10-19T11:02:53.866Z,68.68
2022-10-19T11:05:25.267Z,68.82
2022-10-19T11:07:56.533Z,67.12
2022-10-19T11:10:28.103Z,67.72
2022-10-19T11:12:59.231Z,64.78
2022-10-19T11:15:31.225Z,65.89
2022-10-19T11:18:11.407Z,65.74
2022-10-19T11:20:45.286Z,64.36
2022-10-19T11:23:19.182Z,63.57
2022-10-19T11:25:55.951Z,63.65
2022-10-19T11:28:37.695Z,63.25
2022-10-19T11:31:12.281Z,63.69
2022-10-19T11:33:50.537Z,63.45
2022-10-19T11:36:34.615Z,63.18
2022-10-19T11:39:18.670Z,64.04
2022-10-19T11:41:53.710Z,63.84
2022-10-19T11:44:36.855Z,61.29
2022-10-19T11:47:21.841Z,61.90
2022-10-19T11:50:01.026Z,61.41
2022-10-19T11:52:37.941Z,62.22
2022-10-19T11:55:14.999Z,62.68
2022-10-19T11:57:50.259Z,61.38
2022-10-19T12:00:39.071Z,60.62
2022-10-19T12:03:37.790Z,60.90
2022-10-19T12:06:15.099Z,60.57
2022-10-19T12:09:01.069Z,59.96
2022-10-19T12:11:45.410Z,60.30
2022-10-19T12:14:16.242Z,60.52
2022-10-19T12:16:47.246Z,60.17
2022-10-19T12:19:19.444Z,59.73
2022-10-19T12:21:47.346Z,60.48
2022-10-19T12:24:18.711Z,59.92
2022-10-19T12:26:46.872Z,59.52
2022-10-19T12:29:17.506Z,59.59
2022-10-19T12:31:44.941Z,59.52
2022-10-19T12:34:22.728Z,58.68
2022-10-19T12:36:55.603Z,58.50
2022-10-19T12:39:30.425Z,57.05
2022-10-19T12:42:03.163Z,57.56
2022-10-19T12:44:57.734Z,59.52
2022-10-19T12:47:26.014Z,57.51
2022-10-19T12:49:54.035Z,57.80
2022-10-19T12:52:42.759Z,58.42
2022-10-19T12:55:25.965Z,58.19
2022-10-19T12:58:19.674Z,57.76
2022-10-19T13:00:58.041Z,57.49
2022-10-19T13:03:29.852Z,58.95
2022-10-19T13:05:58.183Z,57.91
2022-10-19T13:08:28.702Z,55.90
2022-10-19T13:11:06.573Z,55.92
2022-10-19T13:13:56.361Z,56.48
2022-10-19T13:16:57.376Z,56.84
2022-10-19T13:19:24.230Z,57.32
2022-10-19T13:22:22.828Z,58.06
2022-10-19T13:25:23.970Z,57.29
2022-10-19T13:27:53.135Z,56.70
2022-10-19T13:31:03.420Z,56.57
2022-10-19T13:33:46.367Z,56.04
2022-10-19T13:36:13.758Z,54.95
2022-10-19T13:38:41.961Z,55.37
2022-10-19T13:41:15.025Z,56.05
2022-10-19T13:43:55.454Z,55.52
2022-10-19T13:46:36.841Z,56.09
2022-10-19T13:49:26.729Z,56.69
2022-10-19T13:52:09.107Z,56.79
2022-10-19T13:54:52.774Z,56.45
2022-10-19T13:57:29.821Z,56.24
2022-10-19T14:00:11.404Z,56.21
2022-10-19T14:03:05.368Z,56.10
2022-10-19T14:05:51.097Z,57.48
2022-10-19T14:08:33.289Z,59.32
2022-10-19T14:11:03.853Z,58.69
2022-10-19T14:13:31.203Z,59.93
2022-10-19T14:15:59.785Z,59.91
2022-10-19T14:18:28.347Z,59.46
2022-10-19T14:20:59.350Z,59.71
2022-10-19T14:23:27.926Z,59.66
2022-10-19T14:25:57.265Z,59.27
2022-10-19T14:28:24.778Z,60.37
2022-10-19T14:30:56.961Z,60.65
2022-10-19T14:33:32.964Z,61.09
2022-10-19T14:35:59.795Z,60.60
2022-10-19T14:38:31.986Z,61.32
2022-10-19T14:40:58.679Z,61.01
2022-10-19T14:43:26.936Z,61.21
2022-10-19T14:46:11.576Z,61.92
2022-10-19T14:48:41.393Z,62.86
2022-10-19T14:51:19.591Z,64.04
2022-10-19T14:53:49.240Z,64.12
2022-10-19T14:56:20.399Z,64.43
2022-10-19T14:58:52.398Z,64.86
2022-10-19T15:01:20.745Z,64.86
2022-10-19T15:03:49.801Z,65.72
2022-10-19T15:06:19.397Z,66.38
2022-10-19T15:08:49.218Z,66.90
2022-10-19T15:11:28.604Z,67.47
2022-10-19T15:14:02.041Z,67.81
2022-10-19T15:16:31.310Z,66.84
2022-10-19T15:19:02.898Z,67.32
2022-10-19T15:21:31.472Z,67.99
2022-10-19T15:24:08.582Z,67.84
2022-10-19T15:26:35.290Z,67.02
2022-10-19T15:29:09.734Z,66.42
2022-10-19T15:31:36.335Z,65.73
2022-10-19T15:34:04.679Z,65.94
2022-10-19T15:36:33.115Z,63.28
2022-10-19T15:39:11.819Z,63.69
2022-10-19T15:41:48.697Z,64.32
2022-10-19T15:44:31.885Z,63.37
2022-10-19T15:47:21.872Z,62.81
2022-10-19T15:49:55.219Z,63.90
2022-10-19T15:52:23.542Z,64.10
2022-10-19T15:54:50.430Z,61.97
2022-10-19T15:57:24.640Z,60.96
2022-10-19T15:59:51.220Z,62.49
2022-10-19T16:02:17.808Z,62.93
2022-10-19T16:04:44.366Z,63.30
2022-10-19T16:07:16.134Z,63.73
2022-10-19T16:09:42.729Z,64.61
2022-10-19T16:12:10.058Z,65.27
2022-10-19T16:14:36.887Z,65.61
2022-10-19T16:17:04.204Z,66.05
2022-10-19T16:19:30.779Z,67.23
2022-10-19T16:21:57.253Z,67.65
2022-10-19T16:24:25.181Z,68.68
2022-10-19T16:26:51.750Z,69.06
2022-10-19T16:29:18.386Z,69.50
2022-10-19T16:31:44.898Z,69.61
2022-10-19T16:34:11.623Z,70.31
2022-10-19T16:36:38.135Z,70.98
2022-10-19T16:39:04.704Z,71.19
2022-10-19T16:41:32.936Z,72.22
2022-10-19T16:43:59.502Z,73.00
2022-10-19T16:46:26.693Z,73.47
2022-10-19T16:48:53.513Z,73.75
2022-10-19T16:51:25.967Z,74.27
2022-10-19T16:53:54.797Z,74.61
2022-10-19T16:56:21.296Z,75.52
2022-10-19T16:58:49.554Z,76.01
2022-10-19T17:01:18.520Z,75.74
2022-10-19T17:03:46.764Z,75.96
2022-10-19T17:06:14.574Z,76.71
2022-10-19T17:09:23.289Z,76.47
2022-10-19T17:11:30.150Z,77.05
2022-10-19T17:14:00.148Z,77.92
2022-10-19T17:16:28.729Z,78.23
2022-10-19T17:18:56.667Z,78.39
2022-10-19T17:21:25.682Z,78.62
2022-10-19T17:23:53.843Z,78.56
2022-10-19T17:26:25.647Z,78.99
2022-10-19T17:28:52.300Z,79.29
2022-10-19T17:31:20.365Z,79.79
2022-10-19T17:33:47.246Z,80.57
2022-10-19T17:36:16.153Z,80.50
2022-10-19T17:38:42.737Z,81.02
2022-10-19T17:41:11.961Z,81.51
2022-10-19T17:43:40.357Z,81.92
2022-10-19T17:46:09.920Z,82.88
2022-10-19T17:48:40.729Z,82.83
2022-10-19T17:51:10.847Z,83.03
2022-10-19T17:53:37.413Z,82.94
2022-10-19T17:56:06.570Z,83.52
2022-10-19T17:58:36.377Z,83.67
2022-10-19T18:01:06.837Z,84.32
2022-10-19T18:03:34.971Z,84.64
2022-10-19T18:06:08.160Z,84.75
2022-10-19T18:08:39.666Z,85.13
2022-10-19T18:11:08.075Z,85.12
2022-10-19T18:13:38.674Z,85.46
2022-10-19T18:16:08.482Z,85.49
2022-10-19T18:18:38.101Z,85.67
2022-10-19T18:21:07.613Z,86.35
2022-10-19T18:23:34.603Z,86.26
2022-10-19T18:26:03.131Z,86.66
2022-10-19T18:28:30.234Z,87.37
2022-10-19T18:30:56.772Z,87.37
2022-10-19T18:33:23.275Z,87.40
2022-10-19T18:35:49.980Z,87.37
2022-10-19T18:38:17.833Z,87.67
2022-10-19T18:40:44.306Z,87.54
2022-10-19T18:43:10.805Z,87.66
2022-10-19T18:45:37.346Z,87.71
2022-10-19T18:48:04.081Z,87.71
2022-10-19T18:50:30.772Z,87.98
2022-10-19T18:52:57.361Z,88.58
2022-10-19T18:55:26.115Z,88.73
2022-10-19T18:57:52.629Z,88.93
2022-10-19T19:00:19.574Z,88.72
2022-10-19T19:02:52.713Z,88.87
2022-10-19T19:05:19.470Z,89.19
2022-10-19T19:07:46.355Z,89.35
2022-10-19T19:10:13.174Z,89.15
2022-10-19T19:12:41.798Z,89.34
2022-10-19T19:15:09.264Z,89.90
2022-10-19T19:17:36.571Z,89.93
2022-10-19T19:20:04.443Z,90.06
2022-10-19T19:22:31.162Z,89.92
2022-10-19T19:24:57.778Z,89.93
2022-10-19T19:27:27.209Z,89.92
2022-10-19T19:29:59.191Z,89.83
2022-10-19T19:32:26.319Z,89.67
2022-10-19T19:34:54.848Z,89.66
2022-10-19T19:37:21.651Z,89.96
2022-10-19T19:39:48.248Z,89.73
2022-10-19T19:42:14.746Z,90.41
2022-10-19T19:44:41.372Z,90.61
2022-10-19T19:47:09.480Z,91.07
2022-10-19T19:49:36.114Z,91.09
2022-10-19T19:52:02.872Z,91.14
2022-10-19T19:54:29.572Z,91.65
2022-10-19T19:56:56.116Z,91.70
2022-10-19T19:59:22.974Z,91.82
2022-10-19T20:01:49.515Z,91.98
2022-10-19T20:04:17.533Z,92.08
2022-10-19T20:06:44.072Z,92.57
2022-10-19T20:09:11.459Z,92.97
2022-10-19T20:11:42.138Z,92.71
2022-10-19T20:14:09.223Z,93.37
2022-10-19T20:16:35.902Z,93.38
2022-10-19T20:19:05.869Z,93.41
2022-10-19T20:21:33.890Z,93.53
2022-10-19T20:24:00.990Z,94.16
2022-10-19T20:26:28.362Z,94.76
2022-10-19T20:28:55.577Z,94.69
2022-10-19T20:31:22.575Z,94.71
2022-10-19T20:33:49.122Z,94.34
2022-10-19T20:36:17.662Z,93.93
2022-10-19T20:38:48.441Z,94.01
2022-10-19T20:41:15.053Z,93.90
2022-10-19T20:43:41.579Z,93.91
2022-10-19T20:46:12.992Z,93.93
2022-10-19T20:48:39.554Z,93.96
2022-10-19T20:51:16.980Z,94.06
2022-10-19T20:53:46.627Z,94.87
2022-10-19T20:56:14.945Z,94.74
2022-10-19T20:58:41.501Z,95.04
2022-10-19T21:01:09.517Z,95.49
2022-10-19T21:03:36.266Z,95.66
2022-10-19T21:06:04.938Z,95.61
2022-10-19T21:08:32.502Z,96.21
2022-10-19T21:11:00.430Z,96.38
2022-10-19T21:13:27.179Z,96.47
2022-10-19T21:15:53.800Z,96.24
2022-10-19T21:18:20.283Z,96.32
2022-10-19T21:20:46.853Z,96.85
2022-10-19T21:23:13.368Z,97.17
2022-10-19T21:25:39.885Z,97.15
2022-10-19T21:28:07.886Z,97.21
2022-10-19T21:30:36.366Z,97.41
2022-10-19T21:33:02.898Z,97.74
2022-10-19T21:35:29.386Z,99.99
2022-10-19T21:37:55.883Z,99.83
2022-10-19T21:40:22.378Z,99.56
2022-10-19T21:42:48.927Z,99.46
2022-10-19T21:45:29.988Z,99.46
2022-10-19T21:47:57.122Z,99.31
2022-10-19T21:50:23.728Z,99.06
2022-10-19T21:52:50.335Z,99.49
2022-10-19T21:55:16.873Z,99.05
2022-10-19T21:57:43.437Z,99.40
2022-10-19T22:00:11.058Z,99.38
2022-10-19T22:02:40.937Z,98.87
2022-10-19T22:05:08.072Z,98.97
2022-10-19T22:07:35.048Z,99.55
2022-10-19T22:10:01.745Z,100.00
2022-10-19T22:12:28.319Z,100.00
2022-10-19T22:14:54.823Z,100.00
2022-10-19T22:17:21.549Z,99.94
2022-10-19T22:19:50.781Z,99.93
2022-10-19T22:22:17.298Z,100.00
2022-10-19T22:24:43.814Z,100.00
2022-10-19T22:27:10.358Z,100.00
2022-10-19T22:29:36.869Z,100.00
2022-10-19T22:32:03.578Z,100.00
2022-10-19T22:34:30.081Z,99.79
2022-10-19T22:36:58.036Z,99.95
2022-10-19T22:39:27.753Z,99.71
2022-10-19T22:41:54.603Z,99.73
2022-10-19T22:44:21.359Z,99.79
2022-10-19T22:46:47.931Z,99.77
2022-10-19T22:49:14.431Z,99.14
2022-10-19T22:51:40.929Z,99.06
2022-10-19T22:54:08.819Z,99.05
2022-10-19T22:56:35.498Z,99.00
2022-10-19T22:59:05.131Z,99.14
2022-10-19T23:01:32.054Z,98.97
2022-10-19T23:03:58.674Z,99.10
2022-10-19T23:06:25.989Z,99.18
2022-10-19T23:08:52.595Z,99.58
2022-10-19T23:11:20.878Z,99.73
2022-10-19T23:13:47.353Z,99.76
2022-10-19T23:16:14.016Z,99.42
2022-10-19T23:18:41.327Z,100.00
2022-10-19T23:21:10.873Z,100.00
2022-10-19T23:23:37.624Z,100.00
2022-10-19T23:26:05.878Z,100.00
2022-10-19T23:28:36.419Z,100.00
2022-10-19T23:31:05.325Z,100.00
2022-10-19T23:33:32.419Z,100.00
2022-10-19T23:36:02.508Z,100.00
2022-10-19T23:38:29.123Z,100.00
2022-10-19T23:40:55.623Z,100.00
2022-10-19T23:43:22.335Z,100.00
2022-10-19T23:45:50.246Z,100.00
2022-10-19T23:48:16.735Z,100.00
2022-10-19T23:50:43.294Z,100.00
2022-10-19T23:53:09.877Z,100.00
2022-10-19T23:55:36.382Z,100.00
2022-10-19T23:58:03.457Z,100.00
